Flight Track Log - Related Links

Times and Time Zones

All times are in EDT time to prevent confusion due to time zone crossing. See the FLG3862 flight status page for this flight to view local times or setup timezone preferences in your user account.

Time Position Orientation Groundspeed Altitude Reporting Facility
EDT Latitude Longitude Course Direction KTS MPH feet Rate Location/Type
Mon 12:45:00 PM 44.3731 -73.6703 253° West  Level FlightAware Approximate
Mon 12:45:06 PM 44.3958 -73.2883 256° West 253 291 6,500  Level Boston Center
Mon 12:46:00 PM 44.3522 -73.8014 259° West  Level FlightAware Approximate
Mon 12:46:05 PM 44.3825 -73.3869 259° West 258 297 8,700  Level Boston Center
Mon 12:47:00 PM 44.3334 -73.9331 259° West  Level FlightAware Approximate
Mon 12:47:05 PM 44.3669 -73.4914 258° West 263 303 11,000  Level Boston Center
Mon 12:48:00 PM 44.3095 -74.0631 256° West  Level FlightAware Approximate
Mon 12:48:05 PM 44.3469 -73.6217 258° West 305 351 12,200  Level Boston Center
Mon 12:49:00 PM 44.2855 -74.1930 256° West  Level FlightAware Approximate
Mon 12:49:05 PM 44.3267 -73.7517 258° West 342 394 13,200  Level Boston Center
Mon 12:50:05 PM 44.3064 -73.8906 259° West 353 406 14,200 1,000 Climbing Boston Center
Mon 12:51:05 PM 44.2858 -74.0294 258° West 367 422 15,200 850 Climbing Boston Center
Mon 12:52:05 PM 44.2653 -74.1564 257° West 375 432 15,900 850 Climbing Boston Center
Mon 12:53:05 PM 44.2422 -74.2978 257° West 375 432 16,900 950 Climbing Boston Center
Mon 12:54:05 PM 44.2211 -74.4419 258° West 375 432 17,800 1,050 Climbing Boston Center
Mon 12:55:05 PM 44.1953 -74.6031 257° West 380 437 19,000 1,488 Climbing Boston Center
Mon 12:56:06 PM 44.1736 -74.7442 258° West 386 444 20,800 1,700 Climbing Boston Center
Mon 12:57:05 PM 44.1522 -74.8794 258° West 381 438 22,400 1,361 Climbing Boston Center
Mon 12:58:05 PM 44.1306 -75.0117 257° West 368 423 23,500 992 Climbing Boston Center
Mon 12:59:06 PM 44.1086 -75.1467 257° West 363 418 24,400 750 Climbing Boston Center
Mon 01:00:05 PM 44.0844 -75.2872 257° West 363 418 25,000 603 Climbing Boston Center
Mon 01:02:05 PM 44.0394 -75.5708 258° West 379 436 26,200 600 Climbing Boston Center
Mon 01:03:05 PM 44.0144 -75.7169 257° West 385 443 26,800 550 Climbing Boston Center
Mon 01:04:05 PM 43.9894 -75.8656 257° West 392 451 27,300 500 Climbing Boston Center
Mon 01:05:05 PM 43.9639 -76.0142 257° West 392 451 27,800 350 Climbing Boston Center
Mon 01:06:05 PM 43.9531 -76.1636 264° West 392 451 28,000 99 Climbing Boston Center
Mon 01:07:06 PM 43.9497 -76.3219 268° West 392 451 28,000  Level Boston Center
Mon 01:08:06 PM 43.9442 -76.4833 267° West 407 468 28,000  Level Boston Center
Mon 01:09:31 PM 43.9333 -76.7000 266° West 430 495 28,000  Level Toronto Center
Mon 01:10:31 PM 43.9167 -76.8500 261° West 430 495 28,000  Level Toronto Center
Mon 01:11:31 PM 43.9000 -77.0167 262° West 430 495 28,000  Level Toronto Center
Mon 01:12:31 PM 43.8667 -77.1833 255° West 430 495 28,000  Level Toronto Center
Mon 01:13:31 PM 43.8500 -77.3500 262° West 430 495 28,000  Level Toronto Center
Mon 01:14:31 PM 43.8333 -77.5000 261° West 440 506 28,000  Level Toronto Center
Mon 01:15:31 PM 43.8167 -77.6667 262° West 440 506 28,000  Level Toronto Center
Mon 01:16:31 PM 43.8000 -77.8333 262° West 440 506 28,000  Level Toronto Center
Mon 01:17:31 PM 43.7667 -78.0000 255° West 440 506 28,000  Level Toronto Center
Mon 01:18:31 PM 43.7500 -78.1833 263° West 440 506 28,000  Level Toronto Center
Mon 01:19:31 PM 43.7167 -78.3333 253° West 440 506 28,000  Level Toronto Center
Mon 01:20:31 PM 43.7167 -78.5333 270° West 440 506 28,000  Level Toronto Center
Mon 01:21:31 PM 43.6833 -78.6667 251° West 440 506 28,000  Level Toronto Center
Mon 01:22:31 PM 43.6167 -78.8333 241° Southwest 440 506 28,000  Level Toronto Center
Mon 01:23:31 PM 43.5667 -78.9667 243° Southwest 440 506 28,000  Level Toronto Center
Mon 01:24:31 PM 43.5000 -79.1000 235° Southwest 440 506 28,000  Level Toronto Center
Mon 01:25:31 PM 43.4333 -79.2667 241° Southwest 440 506 28,000  Level Toronto Center
Mon 01:26:31 PM 43.3667 -79.4000 236° Southwest 450 518 28,000  Level Toronto Center
Mon 01:27:31 PM 43.3000 -79.5333 236° Southwest 450 518 28,000  Level Toronto Center
Mon 01:28:31 PM 43.2333 -79.7000 241° Southwest 450 518 28,000  Level Toronto Center
Mon 01:29:31 PM 43.1667 -79.8333 236° Southwest 450 518 28,000 -150 Level Toronto Center
Mon 01:30:31 PM 43.1000 -80.0000 241° Southwest 450 518 27,700 -650 Descending Toronto Center
Mon 01:31:31 PM 43.0333 -80.1333 236° Southwest 460 529 26,700 -1,000 Descending Toronto Center
Mon 01:32:31 PM 42.9667 -80.3000 241° Southwest 460 529 25,700 -1,000 Descending Toronto Center
Mon 01:33:31 PM 42.9167 -80.4333 243° Southwest 440 506 24,700 -1,000 Descending Toronto Center
Mon 01:34:31 PM 42.8500 -80.5667 236° Southwest 440 506 23,700 -988 Descending Toronto Center
Mon 01:34:56 PM 42.8208 -80.6483 244° Southwest 451 519 23,300 -494 Descending Cleveland Center
Mon 01:35:56 PM 42.7558 -80.7897 238° Southwest 445 512 23,000 -150 Descending Cleveland Center
Mon 01:36:56 PM 42.7036 -80.9308 243° Southwest 434 499 23,000  Level Cleveland Center
Mon 01:37:56 PM 42.6861 -81.0889 261° West 424 488 23,000  Level Cleveland Center
Mon 01:38:56 PM 42.6647 -81.2467 260° West 424 488 23,000  Level Cleveland Center
Mon 01:39:56 PM 42.6469 -81.4103 262° West 438 504 23,000 50 Level Cleveland Center
Mon 01:40:57 PM 42.6289 -81.5736 262° West 445 512 23,100 -750 Climbing Cleveland Center
Mon 01:41:56 PM 42.6108 -81.7144 260° West 432 497 21,500 -1,866 Descending Cleveland Center
Mon 01:42:56 PM 42.5928 -81.8692 261° West 427 491 19,400 -2,050 Descending Cleveland Center
Mon 01:43:56 PM 42.5722 -82.0183 259° West 422 486 17,400 -2,092 Descending Cleveland Center
Mon 01:44:45 PM 42.5581 -82.1475 262° West 388 447 15,600 -1,950 Descending Cleveland Center
Mon 01:45:56 PM 42.5392 -82.2881 260° West 379 436 13,500 -1,649 Descending Cleveland Center
Mon 01:46:56 PM 42.5247 -82.4200 262° West 371 427 12,000 -744 Descending Cleveland Center
Mon 01:47:57 PM 42.5106 -82.5294 260° West 337 388 12,000 -500 Level Cleveland Center
Mon 01:48:56 PM 42.4797 -82.6214 246° West 297 342 11,000 -1,412 Descending Cleveland Center
Mon 01:49:56 PM 42.4467 -82.7133 244° Southwest 283 326 9,200 -1,150 Descending Cleveland Center
Mon 01:50:56 PM 42.4325 -82.8083 259° West 266 306 8,700 -1,031 Descending Cleveland Center
Mon 01:52:04 PM 42.4403 -82.9297 275° West 255 293 7,000 -1,209 Descending Cleveland Center
Mon 01:53:05 PM 42.4508 -83.0286 278° West 262 302 6,100 -536 Descending Cleveland Center
Mon 01:53:56 PM 42.4472 -83.0961 266° West 253 291 6,000 -358 Descending Cleveland Center
Mon 01:54:12 PM 42.4361 -83.1264 244° Southwest 233 268 5,700 -1,169 Descending Cleveland Center
Mon 01:55:13 PM 42.3972 -83.1981 234° Southwest 220 253 4,500 -1,033 Descending Cleveland Center
Mon 01:56:14 PM 42.3544 -83.2356 213° Southwest 172 198 3,600 -891 Descending Cleveland Center
Mon 01:57:21 PM 42.3078 -83.2703 209° Southwest 165 190 2,600 -896 Descending Cleveland Center

Login

Don't have an account? Register now (free) for customized features, flight alerts, and more!